»·PEaware :: SWA821 KRNO-KSAN

SWA821 :: KRNO-KSAN

FLIGHT INFORMATION

Flight Status: Arrived
Operator:
Southwest Airlines
More flights by this operator :: More flights under this callsign
Pilot: Andre N. (13929)
Aircraft: BOEING 737-800
(B738)
More flights by this aircraft type
Origin: KRNO Reno/Tahoe Intl
United States
Destination: KSAN San Diego Intl-Lindbergh
United States
More flights between these airports :: More routes between these airports
Route: +ZEFFR6 DARBI EHF HUULK COMIX1
File this flight plan on PilotEdge
Remarks:
Altitude:
(Current/Filed)
35,000ft
Speed:
(Current/Filed)
450kts
Departed: 14-Apr-18 08:42 PM
Arrived: 14-Apr-18 10:01 PM
Distance/Time
Traveled:
425nm/1:19
Distance/Time
To Go:
Arrived

Flight Plot

Page will automatically refresh every two minutes.

Flight plan parsing failed; only flown route is shown


Map Options




Map Legend


Flown Route
Filed Route
Departure Airport
Arrival Airport
Navaid (VOR, NDB)
Fix

Horizontal Profiles

Position Reports

Time Latitude Longitude Heading Altitude Ground
Speed
14-Apr-18 20:19 39.504394 -119.773753 358 4423ft 0kts
14-Apr-18 20:20 39.504394 -119.773753 358 4423ft 0kts
14-Apr-18 20:21 39.504394 -119.773753 358 4423ft 0kts
14-Apr-18 20:22 39.504394 -119.773753 358 4423ft 0kts
14-Apr-18 20:23 39.504394 -119.773753 358 4423ft 0kts
14-Apr-18 20:24 39.504394 -119.773753 358 4423ft 0kts
14-Apr-18 20:25 39.504394 -119.773753 358 4423ft 0kts
14-Apr-18 20:26 39.504394 -119.773753 358 4423ft 0kts
14-Apr-18 20:27 39.504394 -119.773753 358 4423ft 0kts
14-Apr-18 20:28 39.504394 -119.773753 358 4423ft 0kts
14-Apr-18 20:29 39.504394 -119.773753 358 4423ft 0kts
14-Apr-18 20:30 39.504394 -119.773753 358 4423ft 0kts
14-Apr-18 20:31 39.504394 -119.773753 358 4423ft 0kts
14-Apr-18 20:32 39.504394 -119.773753 358 4423ft 0kts
14-Apr-18 20:33 39.504394 -119.773753 358 4423ft 0kts
14-Apr-18 20:34 39.504000 -119.773743 358 4423ft 2kts
14-Apr-18 20:35 39.503733 -119.774219 87 4423ft 0kts
14-Apr-18 20:36 39.503739 -119.773275 89 4423ft 0kts
14-Apr-18 20:37 39.503739 -119.773275 89 4423ft 0kts
14-Apr-18 20:38 39.503904 -119.771657 41 4423ft 12kts
14-Apr-18 20:39 39.507364 -119.771502 359 4422ft 15kts
14-Apr-18 20:40 39.510716 -119.771390 27 4422ft 5kts
14-Apr-18 20:41 39.508712 -119.769235 180 4422ft 58kts
14-Apr-18 20:42 39.465281 -119.769582 180 5741ft 199kts
14-Apr-18 20:43 39.400307 -119.769322 180 7908ft 258kts
14-Apr-18 20:44 39.327038 -119.769592 180 11018ft 272kts
14-Apr-18 20:45 39.247364 -119.767282 179 13073ft 319kts
14-Apr-18 20:46 39.155545 -119.763803 179 15774ft 340kts
14-Apr-18 20:47 39.059660 -119.760171 179 18430ft 354kts
14-Apr-18 20:48 38.960011 -119.756406 180 20909ft 366kts
14-Apr-18 20:49 38.859213 -119.752617 180 23059ft 378kts
14-Apr-18 20:50 38.752984 -119.748644 180 25064ft 390kts
14-Apr-18 20:51 38.642958 -119.744546 180 26907ft 401kts
14-Apr-18 20:52 38.530136 -119.740357 180 28578ft 412kts
14-Apr-18 20:53 38.415018 -119.736083 180 30312ft 416kts
14-Apr-18 20:54 38.300101 -119.731783 179 32137ft 413kts
14-Apr-18 20:55 38.187449 -119.707562 171 33725ft 412kts
14-Apr-18 20:56 38.075615 -119.681305 171 35133ft 408kts
14-Apr-18 20:57 37.960708 -119.654608 171 35252ft 438kts
14-Apr-18 20:58 37.839891 -119.626758 171 35239ft 449kts
14-Apr-18 20:59 37.737463 -119.603381 171 35239ft 449kts
14-Apr-18 21:00 37.594513 -119.571037 171 35293ft 449kts
14-Apr-18 21:01 37.492353 -119.548015 171 35293ft 449kts
14-Apr-18 21:02 37.370010 -119.520484 171 35293ft 449kts
14-Apr-18 21:03 37.259732 -119.495682 171 35293ft 449kts
14-Apr-18 21:04 37.137151 -119.468118 171 35202ft 449kts
14-Apr-18 21:05 37.014642 -119.440573 171 35131ft 449kts
14-Apr-18 21:06 36.893259 -119.413280 171 35158ft 449kts
14-Apr-18 21:07 36.772005 -119.386015 171 35159ft 449kts
14-Apr-18 21:08 36.649310 -119.358426 171 35159ft 449kts
14-Apr-18 21:09 36.528211 -119.331197 172 35155ft 449kts
14-Apr-18 21:10 36.405408 -119.303586 172 35155ft 449kts
14-Apr-18 21:11 36.282961 -119.276055 172 35155ft 449kts
14-Apr-18 21:12 36.160577 -119.248538 172 35155ft 449kts
14-Apr-18 21:13 36.037786 -119.220941 171 35153ft 450kts
14-Apr-18 21:14 35.915255 -119.193390 171 35155ft 450kts
14-Apr-18 21:15 35.810935 -119.169937 171 35156ft 451kts
14-Apr-18 21:16 35.694710 -119.143813 171 35156ft 451kts
14-Apr-18 21:17 35.580215 -119.118083 171 35156ft 451kts
14-Apr-18 21:18 35.459225 -119.084017 158 35176ft 454kts
14-Apr-18 21:19 35.345355 -119.020812 157 35157ft 454kts
14-Apr-18 21:20 35.231027 -118.956989 156 35156ft 455kts
14-Apr-18 21:21 35.116701 -118.893302 157 35260ft 454kts
14-Apr-18 21:22 35.001875 -118.829533 157 35264ft 454kts
14-Apr-18 21:23 34.888790 -118.766895 157 35265ft 454kts
14-Apr-18 21:24 34.804658 -118.720365 157 35265ft 454kts
14-Apr-18 21:25 34.690539 -118.657310 156 35265ft 454kts
14-Apr-18 21:26 34.579494 -118.594975 152 35259ft 455kts
14-Apr-18 21:27 34.470798 -118.517868 150 35184ft 456kts
14-Apr-18 21:28 34.362071 -118.440478 150 35161ft 456kts
14-Apr-18 21:29 34.255082 -118.364556 150 33979ft 456kts
14-Apr-18 21:30 34.149812 -118.290070 151 32242ft 459kts
14-Apr-18 21:31 34.044554 -118.215806 151 30547ft 463kts
14-Apr-18 21:32 33.942442 -118.143974 151 28915ft 466kts
14-Apr-18 21:33 33.844916 -118.075566 151 27364ft 469kts
14-Apr-18 21:34 33.738736 -118.004815 152 25488ft 434kts
14-Apr-18 21:35 33.639575 -117.939273 152 23675ft 399kts
14-Apr-18 21:36 33.545817 -117.877471 152 22020ft 378kts
14-Apr-18 21:37 33.455178 -117.815942 151 20620ft 371kts
14-Apr-18 21:38 33.380573 -117.735519 134 18795ft 362kts
14-Apr-18 21:39 33.311688 -117.650695 134 16798ft 351kts
14-Apr-18 21:40 33.243263 -117.572934 144 14791ft 317kts
14-Apr-18 21:41 33.173332 -117.513913 145 12992ft 304kts
14-Apr-18 21:42 33.104808 -117.456550 145 11686ft 294kts
14-Apr-18 21:43 33.041634 -117.403811 145 10505ft 272kts
14-Apr-18 21:44 32.980819 -117.352808 145 9442ft 266kts
14-Apr-18 21:45 32.937859 -117.316821 145 8725ft 262kts
14-Apr-18 21:46 32.879209 -117.267900 145 8024ft 260kts
14-Apr-18 21:47 32.820887 -117.219268 141 7239ft 250kts
14-Apr-18 21:48 32.796673 -117.145641 101 6381ft 242kts
14-Apr-18 21:49 32.784004 -117.070661 101 5360ft 225kts
14-Apr-18 21:50 32.772133 -117.000207 101 4978ft 209kts
14-Apr-18 21:51 32.760786 -116.932851 101 5008ft 206kts
14-Apr-18 21:52 32.750047 -116.868949 101 5005ft 193kts
14-Apr-18 21:53 32.713517 -116.836199 199 4329ft 192kts
14-Apr-18 21:54 32.687327 -116.888118 251 3577ft 187kts
14-Apr-18 21:55 32.675714 -116.947821 282 3739ft 189kts
14-Apr-18 21:56 32.689358 -117.008262 286 3352ft 189kts
14-Apr-18 21:57 32.703212 -117.064864 286 2167ft 157kts
14-Apr-18 21:58 32.715169 -117.113701 286 1330ft 151kts
14-Apr-18 21:59 32.726117 -117.159235 287 450ft 147kts
14-Apr-18 22:00 32.734383 -117.194383 252 25ft 21kts
14-Apr-18 22:01 32.733870 -117.196936 206 24ft 11kts

Navigation Log

Ident Type
Flight plan parsing failed, navigation log unavailable